Time;durP1;ratioP1;P1;durP2;ratioP2;P2;SDS_P1;SDS_P2;PMS_P1;PMS_P2;Temp;Humidity;BMP_temperature;BMP_pressure;BME280_temperature;BME280_humidity;BME280_pressure;Samples;Min_cycle;Max_cycle;Signal;HPM_P1;HPM_P2
2023/04/03 00:00:31;;;;;;;3.47;1.48;;;2.50;99.90;;;;;;5013606;28;20505;-62
2023/04/03 00:02:58;;;;;;;2.63;1.45;;;2.50;99.90;;;;;;4972560;28;20121;-63
2023/04/03 00:05:26;;;;;;;2.55;1.30;;;2.50;99.90;;;;;;4994061;28;20050;-63
2023/04/03 00:07:52;;;;;;;4.45;1.40;;;2.50;99.90;;;;;;4993899;28;20509;-64
2023/04/03 00:10:19;;;;;;;4.60;1.52;;;2.60;99.90;;;;;;4993424;28;20113;-65
2023/04/03 00:12:48;;;;;;;2.33;1.15;;;2.40;99.90;;;;;;4977019;28;20054;-63
2023/04/03 00:15:15;;;;;;;2.72;1.48;;;2.40;99.90;;;;;;4992416;28;20053;-63
2023/04/03 00:17:42;;;;;;;2.45;1.40;;;2.40;99.90;;;;;;4993535;28;20097;-63
2023/04/03 00:20:09;;;;;;;2.45;1.20;;;2.30;99.90;;;;;;4977093;28;20050;-64
2023/04/03 00:22:36;;;;;;;2.10;1.10;;;2.30;99.90;;;;;;4976606;28;20055;-63
2023/04/03 00:25:03;;;;;;;2.70;1.20;;;2.30;99.90;;;;;;4993013;28;20494;-63
2023/04/03 00:27:30;;;;;;;2.55;1.27;;;2.30;99.90;;;;;;4976737;28;20109;-62
2023/04/03 00:29:58;;;;;;;2.53;1.20;;;2.30;99.90;;;;;;4976791;28;20054;-63
2023/04/03 00:32:25;;;;;;;2.72;1.10;;;2.30;99.90;;;;;;4992760;28;20046;-63
2023/04/03 00:34:52;;;;;;;3.40;1.10;;;2.30;99.90;;;;;;4993226;28;20097;-63
2023/04/03 00:37:19;;;;;;;2.90;1.02;;;2.30;99.90;;;;;;4976472;28;20051;-63
2023/04/03 00:39:46;;;;;;;4.32;1.17;;;2.20;99.90;;;;;;4993062;28;20050;-62
2023/04/03 00:42:13;;;;;;;5.07;1.20;;;2.20;99.90;;;;;;4993712;28;20174;-63
2023/04/03 00:45:17;;;;;;;4.97;1.27;;;2.20;99.90;;;;;;4992851;28;20058;-63
2023/04/03 00:47:46;;;;;;;2.35;1.02;;;2.20;99.90;;;;;;4990229;28;20046;-64
2023/04/03 00:50:13;;;;;;;4.20;1.40;;;2.20;99.90;;;;;;4991604;28;20050;-62
2023/04/03 00:52:40;;;;;;;3.67;1.25;;;2.30;99.90;;;;;;4992488;28;20125;-64
2023/04/03 00:55:10;;;;;;;3.47;1.20;;;2.10;99.90;;;;;;4975908;28;20101;-63
2023/04/03 00:57:38;;;;;;;4.72;1.50;;;2.10;99.90;;;;;;4975778;28;20113;-63
2023/04/03 01:00:09;;;;;;;3.15;1.17;;;2.10;99.90;;;;;;4975345;28;20053;-63
2023/04/03 01:02:37;;;;;;;2.67;1.08;;;2.00;99.90;;;;;;4976150;28;20062;-63
2023/04/03 01:05:06;;;;;;;2.67;1.27;;;2.00;99.90;;;;;;4992907;28;20050;-62
2023/04/03 01:07:36;;;;;;;3.90;1.58;;;2.00;99.90;;;;;;4992586;28;20077;-63
2023/04/03 01:10:08;;;;;;;3.80;1.20;;;2.00;99.90;;;;;;4976064;28;20142;-63
2023/04/03 01:12:36;;;;;;;5.40;1.30;;;2.00;99.90;;;;;;4985713;28;20050;-62
2023/04/03 01:15:07;;;;;;;2.42;1.35;;;2.00;99.90;;;;;;5008838;28;20386;-63
2023/04/03 01:17:35;;;;;;;;;;;2.00;99.90;;;;;;5012923;28;20096;-62
2023/04/03 01:20:46;;;;;;;2.53;1.10;;;1.90;99.90;;;;;;5011629;28;19921;-63
2023/04/03 01:23:36;;;;;;;4.30;1.70;;;1.90;99.90;;;;;;4994695;28;20555;-63
2023/04/03 01:26:03;;;;;;;4.35;1.58;;;1.90;99.90;;;;;;4994840;28;20049;-63
2023/04/03 01:28:32;;;;;;;3.88;1.42;;;1.80;99.90;;;;;;5011356;28;20104;-63
2023/04/03 01:31:06;;;;;;;5.05;1.30;;;1.90;99.90;;;;;;5012179;28;20108;-64
2023/04/03 01:33:35;;;;;;;2.45;1.40;;;1.80;99.90;;;;;;5012183;28;20052;-63
2023/04/03 01:36:02;;;;;;;3.35;1.60;;;1.80;99.90;;;;;;5011537;28;20088;-64
2023/04/03 01:38:29;;;;;;;5.43;2.15;;;1.80;99.90;;;;;;5010303;28;20057;-63
2023/04/03 01:40:56;;;;;;;5.75;1.77;;;1.70;99.90;;;;;;4994321;28;20053;-63
2023/04/03 01:43:23;;;;;;;4.15;1.52;;;1.70;99.90;;;;;;5003299;28;20446;-62
2023/04/03 01:45:52;;;;;;;5.47;1.65;;;1.60;99.90;;;;;;4987569;28;20411;-64
2023/04/03 01:48:19;;;;;;;5.07;1.40;;;1.70;99.90;;;;;;4996699;28;20060;-63
2023/04/03 01:50:47;;;;;;;3.40;1.52;;;1.60;99.90;;;;;;5011822;28;20053;-63
2023/04/03 01:53:14;;;;;;;5.03;1.55;;;1.60;99.90;;;;;;5012032;28;20038;-63
2023/04/03 01:55:41;;;;;;;6.18;1.55;;;1.50;99.90;;;;;;5011173;28;20096;-63
2023/04/03 01:58:08;;;;;;;3.85;1.23;;;1.50;99.90;;;;;;4990416;28;20058;-62
2023/04/03 02:00:35;;;;;;;5.88;1.30;;;1.50;99.90;;;;;;4974962;28;20050;-63
2023/04/03 02:03:03;;;;;;;5.22;1.60;;;1.50;99.90;;;;;;4991602;28;20560;-63
2023/04/03 02:05:30;;;;;;;3.75;1.40;;;1.40;99.90;;;;;;4991915;28;20051;-63
2023/04/03 02:07:58;;;;;;;2.85;1.45;;;1.40;99.90;;;;;;4975363;28;20564;-63
2023/04/03 02:10:25;;;;;;;4.97;1.75;;;1.40;99.90;;;;;;4991376;28;20101;-64
2023/04/03 02:12:52;;;;;;;5.63;1.75;;;1.40;99.90;;;;;;4975229;28;20059;-64
2023/04/03 02:15:19;;;;;;;4.70;1.40;;;1.30;99.90;;;;;;4975057;28;20058;-63
2023/04/03 02:17:46;;;;;;;6.78;1.45;;;1.30;99.90;;;;;;4974655;28;20479;-64
2023/04/03 02:20:13;;;;;;;5.80;1.65;;;1.30;99.90;;;;;;4992299;28;20050;-63
2023/04/03 02:22:40;;;;;;;2.97;1.40;;;1.30;99.90;;;;;;4992062;28;20093;-63
2023/04/03 02:25:10;;;;;;;6.65;1.42;;;1.30;99.90;;;;;;4966588;28;20486;-63
2023/04/03 02:27:37;;;;;;;3.63;1.75;;;1.20;99.90;;;;;;4979602;28;20181;-63
2023/04/03 02:30:04;;;;;;;5.75;2.00;;;1.20;99.90;;;;;;5010344;28;20097;-63
2023/04/03 02:32:31;;;;;;;5.05;1.60;;;1.10;99.90;;;;;;4989669;28;20089;-63
2023/04/03 02:34:58;;;;;;;3.55;1.55;;;1.10;99.90;;;;;;4974734;28;20104;-63
2023/04/03 02:37:25;;;;;;;3.08;1.40;;;1.10;99.90;;;;;;4983859;28;20409;-63
2023/04/03 02:39:52;;;;;;;6.93;2.15;;;1.10;99.90;;;;;;5008482;28;20054;-64
2023/04/03 02:42:20;;;;;;;6.50;2.00;;;1.00;99.90;;;;;;4993785;28;20050;-64
2023/04/03 02:44:47;;;;;;;4.38;1.70;;;1.00;99.90;;;;;;4993109;28;20058;-63
2023/04/03 02:47:14;;;;;;;5.28;1.65;;;1.00;99.90;;;;;;5011376;28;20490;-63
2023/04/03 02:49:41;;;;;;;3.40;1.55;;;0.90;99.90;;;;;;4993791;28;20449;-63
2023/04/03 02:52:07;;;;;;;6.05;2.45;;;0.90;99.90;;;;;;4993125;28;20046;-62
2023/04/03 02:54:34;;;;;;;4.13;1.50;;;0.90;99.90;;;;;;4993515;28;20053;-63
2023/04/03 02:57:01;;;;;;;6.50;2.40;;;0.90;99.90;;;;;;4993613;28;20413;-63
2023/04/03 02:59:29;;;;;;;8.48;1.80;;;0.90;99.90;;;;;;4971164;28;20109;-63
2023/04/03 03:01:56;;;;;;;7.75;1.88;;;0.80;99.90;;;;;;4972380;28;20053;-63
2023/04/03 03:04:23;;;;;;;4.90;1.70;;;0.80;99.90;;;;;;4990233;28;20046;-63
2023/04/03 03:06:50;;;;;;;3.88;1.52;;;0.80;99.90;;;;;;4992836;28;20054;-63
2023/04/03 03:09:17;;;;;;;5.40;1.83;;;0.70;99.90;;;;;;5011206;28;20054;-64
2023/04/03 03:11:44;;;;;;;8.95;2.15;;;0.70;99.90;;;;;;5012562;28;20050;-63
2023/04/03 03:14:11;;;;;;;5.10;1.80;;;0.80;99.90;;;;;;4996491;28;20061;-62
2023/04/03 03:16:39;;;;;;;3.60;1.98;;;0.60;99.90;;;;;;4997171;28;20465;-63
2023/04/03 03:19:07;;;;;;;7.47;1.95;;;0.60;99.90;;;;;;5014476;28;20069;-64
2023/04/03 03:21:33;;;;;;;5.22;1.75;;;0.60;99.90;;;;;;5013862;28;20050;-63
2023/04/03 03:24:00;;;;;;;7.47;2.00;;;0.60;99.90;;;;;;4998622;28;20122;-62
2023/04/03 03:26:27;;;;;;;3.10;1.70;;;0.60;99.90;;;;;;5013783;28;20521;-63
2023/04/03 03:28:54;;;;;;;5.43;2.05;;;0.70;99.90;;;;;;4996839;28;20497;-63
2023/04/03 03:31:21;;;;;;;4.80;1.80;;;0.50;99.90;;;;;;5014337;28;20046;-64
2023/04/03 03:33:49;;;;;;;9.15;2.63;;;0.50;99.90;;;;;;4992077;28;20050;-63
2023/04/03 03:36:16;;;;;;;6.97;1.90;;;0.40;99.90;;;;;;4994425;28;20514;-63
2023/04/03 03:38:43;;;;;;;8.05;2.20;;;0.40;99.90;;;;;;4981870;28;20050;-63
2023/04/03 03:41:10;;;;;;;6.78;1.98;;;0.30;99.90;;;;;;4995585;28;20065;-63
2023/04/03 03:43:37;;;;;;;5.40;1.83;;;0.30;99.90;;;;;;4996660;28;20042;-64
2023/04/03 03:46:04;;;;;;;5.53;3.03;;;0.30;99.90;;;;;;4996371;28;20057;-64
2023/04/03 03:48:31;;;;;;;5.18;2.15;;;0.30;99.90;;;;;;4995987;28;20056;-64
2023/04/03 03:50:59;;;;;;;10.20;2.42;;;0.20;99.90;;;;;;5014062;28;20452;-63
2023/04/03 03:53:26;;;;;;;4.45;2.22;;;0.20;99.90;;;;;;4996449;28;20050;-63
2023/04/03 03:55:53;;;;;;;5.75;2.30;;;0.30;99.90;;;;;;4990625;28;20050;-62
2023/04/03 03:58:20;;;;;;;7.45;2.53;;;0.30;99.90;;;;;;4993216;28;20050;-63
2023/04/03 04:00:47;;;;;;;4.38;2.05;;;0.20;99.90;;;;;;4976262;28;20054;-64
2023/04/03 04:03:14;;;;;;;5.97;2.15;;;0.20;99.90;;;;;;4993299;28;20055;-63
2023/04/03 04:05:41;;;;;;;4.28;2.10;;;0.20;99.90;;;;;;4976981;28;20050;-62
2023/04/03 04:08:10;;;;;;;7.70;2.60;;;0.20;99.90;;;;;;4977094;28;20391;-62
2023/04/03 04:10:39;;;;;;;6.22;2.80;;;0.20;99.90;;;;;;4976667;28;20046;-63
2023/04/03 04:13:06;;;;;;;8.32;2.58;;;0.20;99.90;;;;;;4994093;28;20054;-63
2023/04/03 04:15:32;;;;;;;5.90;2.95;;;0.20;99.90;;;;;;4993483;28;20057;-63
2023/04/03 04:17:59;;;;;;;12.05;2.75;;;0.40;99.90;;;;;;4993424;28;20133;-62
2023/04/03 04:20:26;;;;;;;6.40;2.15;;;0.20;99.90;;;;;;4976554;28;20062;-63
2023/04/03 04:22:53;;;;;;;4.60;1.95;;;0.20;99.90;;;;;;4975396;28;20055;-64
2023/04/03 04:25:21;;;;;;;5.22;2.15;;;0.20;99.90;;;;;;4976579;28;20105;-64
2023/04/03 04:27:48;;;;;;;6.80;2.38;;;0.10;99.90;;;;;;4994029;28;20042;-64
2023/04/03 04:30:15;;;;;;;4.35;2.60;;;0.10;99.90;;;;;;4992912;28;20057;-62
2023/04/03 04:32:42;;;;;;;7.20;2.83;;;0.10;99.90;;;;;;4993863;28;20442;-64
2023/04/03 04:35:10;;;;;;;9.73;2.30;;;0.20;99.90;;;;;;4965211;28;20051;-64
2023/04/03 04:37:37;;;;;;;5.00;2.08;;;0.10;99.90;;;;;;4969052;28;20054;-63
2023/04/03 04:40:04;;;;;;;7.85;2.50;;;0.10;99.90;;;;;;4975235;28;20515;-62
2023/04/03 04:42:33;;;;;;;7.18;2.65;;;0.20;99.90;;;;;;4974726;28;20049;-63
2023/04/03 04:45:00;;;;;;;4.15;2.45;;;0.20;99.90;;;;;;4990520;28;20054;-63
2023/04/03 04:47:28;;;;;;;7.35;2.60;;;0.10;99.90;;;;;;4989561;28;20047;-63
2023/04/03 04:49:55;;;;;;;9.45;3.45;;;0.10;99.90;;;;;;4989348;28;20053;-63
2023/04/03 04:52:22;;;;;;;5.05;2.42;;;0.00;99.90;;;;;;4992241;28;20050;-63
2023/04/03 04:54:49;;;;;;;7.03;2.10;;;0.00;99.90;;;;;;4990916;28;20133;-64
2023/04/03 04:57:17;;;;;;;7.70;2.67;;;0.00;99.90;;;;;;4988590;28;20062;-63
2023/04/03 04:59:45;;;;;;;3.78;2.22;;;0.00;99.90;;;;;;4993406;28;20088;-64
2023/04/03 05:02:12;;;;;;;5.53;2.30;;;0.00;99.90;;;;;;4974782;28;20149;-63
2023/04/03 05:04:39;;;;;;;6.55;2.60;;;-0.10;99.90;;;;;;4995303;28;20417;-63
2023/04/03 05:07:06;;;;;;;7.63;2.80;;;-0.10;99.90;;;;;;4982156;28;20104;-63
2023/04/03 05:09:33;;;;;;;6.38;2.50;;;-0.10;99.90;;;;;;4988781;28;20096;-62
2023/04/03 05:12:00;;;;;;;8.25;3.10;;;-0.10;99.90;;;;;;4971907;28;20407;-62
2023/04/03 05:14:32;;;;;;;7.43;3.05;;;-0.10;99.90;;;;;;5003743;28;20046;-63
2023/04/03 05:17:01;;;;;;;10.07;3.22;;;-0.10;99.90;;;;;;4977209;28;20440;-62
2023/04/03 05:19:27;;;;;;;5.82;3.10;;;-0.10;99.90;;;;;;5001210;28;20050;-63
2023/04/03 05:24:35;;;;;;;8.93;3.28;;;-0.20;99.90;;;;;;4990008;28;20112;-63
2023/04/03 05:27:02;;;;;;;6.40;3.45;;;-0.10;99.90;;;;;;4988201;28;20435;-63
2023/04/03 05:29:29;;;;;;;5.00;3.20;;;-0.10;99.90;;;;;;4973890;28;20054;-63
2023/04/03 05:31:56;;;;;;;4.50;2.45;;;-0.10;99.90;;;;;;4989281;28;20051;-63
2023/04/03 05:34:24;;;;;;;6.10;2.88;;;-0.10;99.90;;;;;;4987350;28;20074;-62
2023/04/03 05:36:51;;;;;;;4.85;2.63;;;-0.10;99.90;;;;;;4974208;28;20054;-63
2023/04/03 05:39:18;;;;;;;7.68;2.60;;;-0.10;99.90;;;;;;4988098;28;20054;-62
2023/04/03 05:41:45;;;;;;;9.00;3.10;;;0.00;99.90;;;;;;4990030;28;20498;-63
2023/04/03 05:44:11;;;;;;;8.85;3.30;;;0.00;99.90;;;;;;4974606;28;20042;-63
2023/04/03 05:46:38;;;;;;;13.18;3.20;;;0.00;99.90;;;;;;4975286;28;20108;-63
2023/04/03 05:49:05;;;;;;;6.47;3.05;;;0.30;99.90;;;;;;4982659;28;20046;-64
2023/04/03 05:51:36;;;;;;;6.47;2.70;;;0.10;99.90;;;;;;4967449;28;20438;-63
2023/04/03 05:54:10;;;;;;;9.05;3.40;;;0.20;99.90;;;;;;4969684;28;20058;-64
2023/04/03 05:56:37;;;;;;;5.10;3.10;;;0.30;99.90;;;;;;4973624;28;20076;-62
2023/04/03 05:59:04;;;;;;;9.43;2.67;;;0.50;99.90;;;;;;4975195;28;20065;-63
2023/04/03 06:01:31;;;;;;;7.20;2.60;;;0.60;99.90;;;;;;5000482;28;20494;-63
2023/04/03 06:03:58;;;;;;;5.65;2.97;;;0.40;99.90;;;;;;4967821;28;20478;-62
2023/04/03 06:06:25;;;;;;;7.78;2.88;;;0.50;99.90;;;;;;4989897;28;20054;-62
2023/04/03 06:08:54;;;;;;;6.72;2.67;;;0.50;99.90;;;;;;4970072;28;20050;-62
2023/04/03 06:11:22;;;;;;;8.57;2.60;;;0.60;99.90;;;;;;4973435;28;20058;-62
2023/04/03 06:13:49;;;;;;;8.20;2.38;;;0.60;99.90;;;;;;4987599;28;20047;-62
2023/04/03 06:16:17;;;;;;;5.70;2.35;;;0.70;99.90;;;;;;4989474;28;20476;-62
2023/04/03 06:18:44;;;;;;;5.35;2.33;;;0.80;99.90;;;;;;4986179;28;20055;-62
2023/04/03 06:21:11;;;;;;;5.65;2.50;;;0.90;99.90;;;;;;4974808;28;20065;-62
2023/04/03 06:23:38;;;;;;;12.98;3.15;;;1.40;99.90;;;;;;4972951;28;20104;-63
2023/04/03 06:26:06;;;;;;;7.43;2.90;;;1.90;99.90;;;;;;4986322;28;20517;-63
2023/04/03 06:28:33;;;;;;;7.50;2.50;;;2.30;99.90;;;;;;4972122;28;20050;-63
2023/04/03 06:31:00;;;;;;;9.65;2.83;;;2.90;99.90;;;;;;4981614;28;20404;-63
2023/04/03 06:33:27;;;;;;;9.25;2.58;;;3.60;99.90;;;;;;4969044;28;20106;-64
2023/04/03 06:36:00;;;;;;;6.78;2.40;;;4.60;99.90;;;;;;4968360;28;20050;-63
2023/04/03 06:38:27;;;;;;;6.80;3.40;;;5.60;99.90;;;;;;4967979;28;20120;-63
2023/04/03 06:40:53;;;;;;;6.70;2.55;;;6.00;99.90;;;;;;4973269;28;20113;-63
2023/04/03 06:43:22;;;;;;;7.65;2.95;;;6.50;99.90;;;;;;4998052;28;20413;-63
2023/04/03 06:45:49;;;;;;;8.38;2.33;;;6.70;99.90;;;;;;4982345;28;20047;-62
2023/04/03 06:48:16;;;;;;;8.27;2.90;;;7.30;99.90;;;;;;4992004;28;20042;-63
2023/04/03 06:50:43;;;;;;;4.28;2.17;;;7.40;99.90;;;;;;4974313;28;20513;-63
2023/04/03 06:53:11;;;;;;;6.65;2.60;;;8.00;99.90;;;;;;4991733;28;20062;-63
2023/04/03 06:55:38;;;;;;;9.23;3.00;;;8.50;99.90;;;;;;4979103;28;20046;-64
2023/04/03 06:58:06;;;;;;;5.28;2.20;;;8.90;99.90;;;;;;4991581;28;20061;-63
2023/04/03 07:00:34;;;;;;;9.25;2.33;;;8.60;99.90;;;;;;4975381;28;20054;-63
2023/04/03 07:03:01;;;;;;;4.93;2.60;;;9.50;99.00;;;;;;4991268;28;20490;-63
2023/04/03 07:05:28;;;;;;;6.00;2.58;;;9.90;99.40;;;;;;4994173;28;20133;-63
2023/04/03 07:07:55;;;;;;;5.00;2.08;;;10.10;96.70;;;;;;4990214;28;20125;-64
2023/04/03 07:10:22;;;;;;;8.80;2.25;;;10.60;97.90;;;;;;4994512;28;20504;-64
2023/04/03 07:12:49;;;;;;;5.18;2.53;;;11.50;96.70;;;;;;4982321;28;20081;-64
2023/04/03 07:15:16;;;;;;;5.20;2.10;;;11.00;94.20;;;;;;4985830;28;20117;-64
2023/04/03 07:17:44;;;;;;;8.00;2.17;;;10.50;93.60;;;;;;4987885;28;20055;-63
2023/04/03 07:20:11;;;;;;;5.68;2.38;;;11.20;94.00;;;;;;4999747;28;20061;-64
2023/04/03 07:22:38;;;;;;;7.13;2.20;;;11.20;94.50;;;;;;4982441;28;20391;-64
2023/04/03 07:25:07;;;;;;;9.00;1.92;;;11.70;91.90;;;;;;4976737;28;20101;-64
2023/04/03 07:27:34;;;;;;;4.70;2.08;;;12.00;92.70;;;;;;4973160;28;20046;-66
2023/04/03 07:30:01;;;;;;;7.40;2.75;;;11.90;93.00;;;;;;4986753;28;20061;-63
2023/04/03 07:32:28;;;;;;;3.95;1.98;;;12.70;93.20;;;;;;4984575;28;20054;-64
2023/04/03 07:34:56;;;;;;;3.47;1.77;;;12.60;91.90;;;;;;4996843;28;20108;-63
2023/04/03 07:37:23;;;;;;;5.45;2.15;;;12.40;89.50;;;;;;4973194;28;20449;-64
2023/04/03 07:39:50;;;;;;;7.30;2.20;;;12.20;90.30;;;;;;4977973;28;20054;-64
2023/04/03 07:42:17;;;;;;;6.82;2.80;;;12.00;89.70;;;;;;4974025;28;20058;-64
2023/04/03 07:44:44;;;;;;;6.65;2.28;;;13.00;90.50;;;;;;4975408;28;20055;-64
2023/04/03 07:47:11;;;;;;;8.48;2.65;;;12.40;90.70;;;;;;4988136;28;20074;-64
2023/04/03 07:49:40;;;;;;;4.32;1.80;;;12.60;87.60;;;;;;4975630;28;20050;-64
2023/04/03 07:52:09;;;;;;;5.55;2.22;;;13.10;90.00;;;;;;4988573;28;20074;-65
2023/04/03 07:54:36;;;;;;;4.93;2.40;;;13.70;87.50;;;;;;4985483;28;20411;-64
2023/04/03 07:57:03;;;;;;;4.47;1.90;;;13.80;84.90;;;;;;4987556;28;20411;-64
2023/04/03 07:59:30;;;;;;;4.85;2.00;;;14.70;85.70;;;;;;4990873;28;20573;-66
2023/04/03 08:01:57;;;;;;;4.93;1.95;;;15.30;85.20;;;;;;4989823;28;20556;-66
2023/04/03 08:04:24;;;;;;;5.55;2.22;;;15.40;84.20;;;;;;4987800;28;20047;-64
2023/04/03 08:06:51;;;;;;;4.80;2.00;;;15.80;81.50;;;;;;4985789;28;20085;-64
2023/04/03 08:09:20;;;;;;;5.18;1.95;;;14.40;79.30;;;;;;4987627;28;20055;-64
2023/04/03 08:11:47;;;;;;;7.68;2.20;;;13.80;78.90;;;;;;4976374;28;20138;-64
2023/04/03 08:14:18;;;;;;;5.10;2.10;;;14.20;81.60;;;;;;4990656;28;20494;-65
2023/04/03 08:16:45;;;;;;;5.28;1.75;;;14.50;77.40;;;;;;4971460;28;20047;-65
2023/04/03 08:19:13;;;;;;;6.13;2.10;;;14.50;76.90;;;;;;4976409;28;20426;-64
2023/04/03 08:21:41;;;;;;;6.57;2.80;;;14.70;77.80;;;;;;4995040;28;20487;-64
2023/04/03 08:24:08;;;;;;;4.43;2.00;;;15.10;78.10;;;;;;4983823;28;20109;-65
2023/04/03 08:26:37;;;;;;;4.00;1.60;;;15.10;79.40;;;;;;4976192;28;20054;-64
2023/04/03 08:29:04;;;;;;;5.93;2.00;;;14.90;77.80;;;;;;4991674;28;20561;-64
2023/04/03 08:31:31;;;;;;;5.28;1.70;;;16.00;77.30;;;;;;4986199;28;20050;-65
2023/04/03 08:33:59;;;;;;;5.95;1.65;;;15.00;73.80;;;;;;4989826;28;20042;-65
2023/04/03 08:36:28;;;;;;;4.18;1.77;;;15.20;74.30;;;;;;4981286;28;20055;-65
2023/04/03 08:38:56;;;;;;;4.97;1.73;;;15.60;71.60;;;;;;4983655;28;20065;-65
2023/04/03 08:41:31;;;;;;;5.18;1.50;;;15.20;73.40;;;;;;4988350;28;20549;-64
2023/04/03 08:44:08;;;;;;;4.40;1.77;;;15.80;74.20;;;;;;4973942;28;20078;-65
2023/04/03 08:46:46;;;;;;;2.53;1.10;;;15.50;68.00;;;;;;4986165;28;20050;-64
2023/04/03 08:49:22;;;;;;;3.95;1.20;;;16.00;67.90;;;;;;4989108;28;20405;-64
2023/04/03 08:51:51;;;;;;;2.72;1.15;;;16.50;68.60;;;;;;4971268;28;20054;-65
2023/04/03 08:54:27;;;;;;;3.90;1.70;;;16.60;67.10;;;;;;4971607;28;20612;-65
2023/04/03 08:56:55;;;;;;;2.83;1.20;;;16.80;65.20;;;;;;4985423;28;20144;-65
2023/04/03 08:59:30;;;;;;;2.80;0.93;;;16.20;66.10;;;;;;4975359;28;20414;-66
2023/04/03 09:02:01;;;;;;;2.40;1.60;;;17.00;63.40;;;;;;4974843;28;20061;-66
2023/04/03 09:04:32;;;;;;;5.38;1.60;;;17.20;62.50;;;;;;4972884;28;20054;-65
2023/04/03 09:07:05;;;;;;;3.15;1.45;;;17.30;61.00;;;;;;4974690;28;20127;-65
2023/04/03 09:09:36;;;;;;;2.33;1.10;;;17.10;61.40;;;;;;4972495;28;20061;-65
2023/04/03 09:12:14;;;;;;;2.08;1.00;;;16.80;62.10;;;;;;4991607;28;20053;-66
2023/04/03 09:14:50;;;;;;;3.35;1.20;;;17.30;58.20;;;;;;4989437;28;20042;-66
2023/04/03 09:17:26;;;;;;;2.22;1.00;;;17.10;58.20;;;;;;4990204;28;20054;-66
2023/04/03 09:19:59;;;;;;;3.10;1.08;;;17.00;57.40;;;;;;4989800;28;20092;-66
2023/04/03 09:22:28;;;;;;;2.50;1.27;;;16.20;57.40;;;;;;4991883;28;20054;-64
2023/04/03 09:25:00;;;;;;;3.00;1.17;;;16.10;58.90;;;;;;4991643;28;20069;-66
2023/04/03 09:27:27;;;;;;;2.90;1.30;;;15.50;59.60;;;;;;4990728;28;20498;-65
2023/04/03 09:29:57;;;;;;;2.92;1.20;;;16.70;59.40;;;;;;4985553;28;20050;-65
2023/04/03 09:32:28;;;;;;;3.50;1.40;;;17.60;60.50;;;;;;4987348;28;20057;-66
2023/04/03 09:34:57;;;;;;;2.40;1.13;;;17.50;57.60;;;;;;4972693;28;20054;-66
2023/04/03 09:37:41;;;;;;;3.42;1.25;;;17.60;56.20;;;;;;4988594;28;20047;-65
2023/04/03 09:40:38;;;;;;;4.85;1.20;;;17.60;57.60;;;;;;4973027;28;20069;-66
2023/04/03 09:43:22;;;;;;;3.70;1.45;;;18.20;57.10;;;;;;4987932;28;20054;-66
2023/04/03 09:45:52;;;;;;;3.45;1.10;;;18.80;57.10;;;;;;4992574;28;20053;-65
2023/04/03 09:48:21;;;;;;;6.22;1.45;;;18.10;57.60;;;;;;4992952;28;20618;-65
2023/04/03 09:51:00;;;;;;;2.60;0.98;;;18.90;56.90;;;;;;4972730;28;20046;-66
2023/04/03 09:53:33;;;;;;;4.10;1.52;;;18.80;55.40;;;;;;4990074;28;20490;-65
2023/04/03 09:56:03;;;;;;;2.92;1.13;;;17.70;56.30;;;;;;4989921;28;20050;-65
2023/04/03 09:58:33;;;;;;;3.20;1.58;;;17.70;57.30;;;;;;4990805;28;20046;-66
2023/04/03 10:01:02;;;;;;;4.28;1.33;;;18.60;56.80;;;;;;4988672;28;20506;-65
2023/04/03 10:03:31;;;;;;;3.92;1.58;;;18.90;56.80;;;;;;4990160;28;20521;-65
2023/04/03 10:05:59;;;;;;;4.20;1.15;;;17.90;54.80;;;;;;4989762;28;20046;-65
2023/04/03 10:08:29;;;;;;;4.43;1.52;;;18.80;56.20;;;;;;4990381;28;20056;-65
2023/04/03 10:11:07;;;;;;;;;;;19.20;56.10;;;;;;4972786;28;20050;-66
2023/04/03 10:13:34;;;;;;;3.70;1.23;;;19.10;54.40;;;;;;4989272;28;20397;-65
2023/04/03 10:16:07;;;;;;;3.30;1.23;;;19.00;54.60;;;;;;4974712;28;20058;-66
2023/04/03 10:18:45;;;;;;;2.67;1.20;;;17.80;54.90;;;;;;4991913;28;20050;-66
2023/04/03 10:21:21;;;;;;;2.50;1.40;;;18.30;54.90;;;;;;4994468;28;20047;-65
2023/04/03 10:23:55;;;;;;;2.78;1.30;;;17.80;55.70;;;;;;4983138;28;20050;-65
2023/04/03 10:26:33;;;;;;;4.80;1.30;;;18.20;55.30;;;;;;4980262;28;20100;-65
2023/04/03 10:29:08;;;;;;;3.35;1.10;;;18.50;53.60;;;;;;4992381;28;20053;-65
2023/04/03 10:31:44;;;;;;;2.65;1.10;;;19.00;54.10;;;;;;4993023;28;20077;-66
2023/04/03 10:34:22;;;;;;;3.03;0.98;;;19.70;53.90;;;;;;4991485;28;20050;-66
2023/04/03 10:36:59;;;;;;;2.67;1.23;;;18.90;53.70;;;;;;4993657;28;20049;-65
2023/04/03 10:39:34;;;;;;;2.45;1.08;;;19.60;53.00;;;;;;4993283;28;20050;-65
2023/04/03 10:42:08;;;;;;;2.13;0.90;;;19.90;53.40;;;;;;4997703;28;20085;-65
2023/04/03 10:44:43;;;;;;;3.50;1.15;;;20.10;52.70;;;;;;4993282;28;20042;-66
2023/04/03 10:47:16;;;;;;;2.90;1.17;;;20.10;53.70;;;;;;4993406;28;20140;-65
2023/04/03 10:49:54;;;;;;;1.70;0.80;;;18.20;51.50;;;;;;4992911;28;20075;-65
2023/04/03 10:52:27;;;;;;;2.05;0.90;;;17.50;49.40;;;;;;4975424;28;20104;-67
2023/04/03 10:55:02;;;;;;;3.38;0.90;;;17.50;51.90;;;;;;4974480;28;20097;-65
2023/04/03 10:57:30;;;;;;;2.95;0.85;;;18.90;53.80;;;;;;4985117;28;20146;-65
2023/04/03 11:00:02;;;;;;;2.45;0.80;;;19.30;50.00;;;;;;4990666;28;20054;-64
2023/04/03 11:02:33;;;;;;;1.92;0.85;;;18.80;50.90;;;;;;4976603;28;20054;-65
2023/04/03 11:05:04;;;;;;;2.35;0.90;;;17.80;51.60;;;;;;4973089;28;20490;-65
2023/04/03 11:07:37;;;;;;;1.85;1.00;;;18.10;51.50;;;;;;4995090;28;20560;-66
2023/04/03 11:10:13;;;;;;;2.47;0.85;;;17.80;50.50;;;;;;4995104;28;20058;-65
2023/04/03 11:12:44;;;;;;;2.38;0.70;;;17.80;50.70;;;;;;4977270;28;20077;-66
2023/04/03 11:15:16;;;;;;;1.35;0.70;;;18.70;51.50;;;;;;4977748;28;20047;-65
2023/04/03 11:17:50;;;;;;;2.50;0.88;;;19.20;51.60;;;;;;4978456;28;20060;-66
2023/04/03 11:20:20;;;;;;;1.67;0.70;;;18.70;50.70;;;;;;4977405;28;20050;-65
2023/04/03 11:22:52;;;;;;;3.67;1.05;;;18.50;52.30;;;;;;4977879;28;20074;-66
2023/04/03 11:25:22;;;;;;;3.10;0.93;;;18.90;52.60;;;;;;4993345;28;20079;-65
2023/04/03 11:27:54;;;;;;;2.95;1.00;;;18.60;51.90;;;;;;4977255;28;20528;-66
2023/04/03 11:30:24;;;;;;;1.92;0.80;;;19.60;51.60;;;;;;4977961;28;20058;-66
2023/04/03 11:33:16;;;;;;;;;;;19.00;51.40;;;;;;4994264;28;20062;-65
2023/04/03 11:35:46;;;;;;;3.17;0.85;;;18.90;51.40;;;;;;4977165;28;19985;-65
2023/04/03 11:38:20;;;;;;;2.28;0.90;;;19.70;51.00;;;;;;4994796;28;20050;-66
2023/04/03 11:40:48;;;;;;;3.05;0.82;;;19.40;49.20;;;;;;4977049;28;20506;-66
2023/04/03 11:43:34;;;;;;;2.17;0.88;;;20.00;50.90;;;;;;4977273;28;20050;-65
2023/04/03 11:46:06;;;;;;;3.05;0.95;;;19.60;51.80;;;;;;4994393;28;20486;-64
2023/04/03 11:48:56;;;;;;;2.10;1.05;;;19.20;51.50;;;;;;4994780;28;20446;-64
2023/04/03 11:51:37;;;;;;;;;;;19.70;51.30;;;;;;4994961;28;20054;-65
2023/04/03 11:54:45;;;;;;;2.47;1.30;;;19.00;50.10;;;;;;4991445;28;19992;-65
2023/04/03 11:57:46;;;;;;;3.05;1.05;;;18.20;51.20;;;;;;4977297;28;20100;-65
2023/04/03 12:00:51;;;;;;;1.98;1.15;;;18.00;53.10;;;;;;4991676;28;20058;-66
2023/04/03 12:04:03;;;;;;;4.10;1.13;;;18.00;53.70;;;;;;4976908;28;20050;-64
2023/04/03 12:07:05;;;;;;;2.75;0.90;;;18.30;54.80;;;;;;4953363;28;20098;-66
2023/04/03 12:10:03;;;;;;;2.42;0.82;;;19.10;54.40;;;;;;4976459;28;20061;-65
2023/04/03 12:12:40;;;;;;;2.28;0.88;;;19.30;51.60;;;;;;4988099;28;20054;-65
2023/04/03 12:15:26;;;;;;;2.50;0.93;;;18.20;51.50;;;;;;4974486;28;20108;-65
2023/04/03 12:17:53;;;;;;;3.03;1.13;;;18.20;52.20;;;;;;4994565;28;20105;-65
2023/04/03 12:21:03;;;;;;;2.15;0.98;;;18.00;51.90;;;;;;4977265;28;20046;-66
2023/04/03 12:23:36;;;;;;;1.42;0.70;;;17.90;53.50;;;;;;4962199;28;20521;-65
2023/04/03 12:26:07;;;;;;;3.22;1.30;;;17.80;53.70;;;;;;4993937;28;20526;-66
2023/04/03 12:28:41;;;;;;;2.42;1.00;;;17.80;54.20;;;;;;4976303;28;20517;-65
2023/04/03 12:31:11;;;;;;;3.63;1.10;;;18.20;55.10;;;;;;4993713;28;20418;-65
2023/04/03 12:33:56;;;;;;;;;;;18.20;55.40;;;;;;4977188;28;20050;-65
2023/04/03 12:36:31;;;;;;;2.80;1.35;;;17.80;53.70;;;;;;4992963;28;19926;-65
2023/04/03 12:39:35;;;;;;;2.10;0.98;;;18.50;54.70;;;;;;4976505;28;20105;-65
2023/04/03 12:42:19;;;;;;;3.00;1.02;;;18.10;51.90;;;;;;4976570;28;20141;-65
2023/04/03 12:44:54;;;;;;;1.73;0.70;;;18.70;50.90;;;;;;4992562;28;20046;-66
2023/04/03 12:47:26;;;;;;;3.03;1.25;;;19.00;52.50;;;;;;4976460;28;20052;-65
2023/04/03 12:49:55;;;;;;;1.63;0.80;;;18.90;52.60;;;;;;4993232;28;20057;-64
2023/04/03 12:52:38;;;;;;;2.33;1.00;;;19.60;62.10;;;;;;4976528;28;20574;-64
2023/04/03 12:55:15;;;;;;;2.72;0.93;;;20.30;54.40;;;;;;4993678;28;20050;-65
2023/04/03 12:57:43;;;;;;;2.03;0.80;;;20.40;52.70;;;;;;4980170;28;20058;-65
2023/04/03 13:00:21;;;;;;;2.55;0.93;;;19.80;51.60;;;;;;4993371;28;20061;-66
2023/04/03 13:02:49;;;;;;;2.95;0.90;;;20.10;51.50;;;;;;4976051;28;20092;-65
2023/04/03 13:05:27;;;;;;;2.50;1.00;;;19.60;52.30;;;;;;5089071;28;20791;-64
2023/04/03 13:07:59;;;;;;;2.78;0.90;;;19.10;51.80;;;;;;5089736;28;20044;-66
2023/04/03 13:10:26;;;;;;;2.47;0.90;;;19.40;53.40;;;;;;5088541;28;20052;-64
2023/04/03 13:12:55;;;;;;;3.17;1.00;;;19.10;52.40;;;;;;5089507;28;20051;-65